createdAt,value
2019-03-21T00:00:24.663Z,19.90
2019-03-21T00:02:52.803Z,21.90
2019-03-21T00:05:21.706Z,20.73
2019-03-21T00:07:49.823Z,23.13
2019-03-21T00:10:19.546Z,16.97
2019-03-21T00:12:47.660Z,22.53
2019-03-21T00:15:20.194Z,17.43
2019-03-21T00:17:49.896Z,16.97
2019-03-21T00:20:18.098Z,17.67
2019-03-21T00:22:46.338Z,16.27
2019-03-21T00:25:21.663Z,14.37
2019-03-21T00:27:49.888Z,17.90
2019-03-21T00:30:19.457Z,20.30
2019-03-21T00:32:47.919Z,25.10
2019-03-21T00:35:17.573Z,17.40
2019-03-21T00:37:45.885Z,17.37
2019-03-21T00:40:21.584Z,20.53
2019-03-21T00:42:49.728Z,16.07
2019-03-21T00:45:17.923Z,15.17
2019-03-21T00:47:46.322Z,18.40
2019-03-21T00:50:16.007Z,19.12
2019-03-21T00:52:44.856Z,17.17
2019-03-21T00:55:13.268Z,20.50
2019-03-21T00:57:41.473Z,18.30
2019-03-21T01:00:11.157Z,18.03
2019-03-21T01:02:39.288Z,17.87
2019-03-21T01:05:09.017Z,23.90
2019-03-21T01:07:37.143Z,18.97
2019-03-21T01:10:06.818Z,15.63
2019-03-21T01:12:34.943Z,24.20
2019-03-21T01:15:03.539Z,19.23
2019-03-21T01:17:31.659Z,20.50
2019-03-21T01:19:59.782Z,19.13
2019-03-21T01:22:27.977Z,21.47
2019-03-21T01:24:56.100Z,23.33
2019-03-21T01:27:45.641Z,17.57
2019-03-21T01:30:17.394Z,17.97
2019-03-21T01:32:45.584Z,22.30
2019-03-21T01:35:13.775Z,19.17
2019-03-21T01:37:42.122Z,19.17
2019-03-21T01:40:11.775Z,18.67
2019-03-21T01:42:39.908Z,17.07
2019-03-21T01:45:09.608Z,20.35
2019-03-21T01:47:37.734Z,25.87
2019-03-21T01:50:07.391Z,19.30
2019-03-21T01:52:35.511Z,24.07
2019-03-21T01:55:04.701Z,24.20
2019-03-21T01:57:32.833Z,22.53
2019-03-21T02:00:01.404Z,18.70
2019-03-21T02:02:29.637Z,20.67
2019-03-21T02:04:57.771Z,21.43
2019-03-21T02:07:25.890Z,23.70
2019-03-21T02:09:54.017Z,19.80
2019-03-21T02:12:22.140Z,20.50
2019-03-21T02:14:52.362Z,26.63
2019-03-21T02:17:20.857Z,17.60
2019-03-21T02:19:48.994Z,25.37
2019-03-21T02:22:17.149Z,22.67
2019-03-21T02:24:45.370Z,17.23
2019-03-21T02:27:13.526Z,23.87
2019-03-21T02:29:41.690Z,17.30
2019-03-21T02:32:09.851Z,23.07
2019-03-21T02:34:38.252Z,18.57
2019-03-21T02:37:06.445Z,22.20
2019-03-21T02:39:34.686Z,21.20
2019-03-21T02:42:02.820Z,24.07
2019-03-21T02:44:31.004Z,20.87
2019-03-21T02:46:59.155Z,20.40
2019-03-21T02:49:27.282Z,18.60
2019-03-21T02:51:56.158Z,24.83
2019-03-21T02:54:24.312Z,20.13
2019-03-21T02:56:53.172Z,20.90
2019-03-21T02:59:21.310Z,21.85
2019-03-21T03:01:49.557Z,22.40
2019-03-21T03:04:17.674Z,24.50
2019-03-21T03:06:45.799Z,19.37
2019-03-21T03:09:14.005Z,20.90
2019-03-21T03:11:42.137Z,19.33
2019-03-21T03:14:11.026Z,15.98
2019-03-21T03:16:39.156Z,16.37
2019-03-21T03:19:07.349Z,18.67
2019-03-21T03:21:35.487Z,17.33
2019-03-21T03:24:04.257Z,19.87
2019-03-21T03:26:32.392Z,18.60
2019-03-21T03:29:00.562Z,20.07
2019-03-21T03:31:28.749Z,20.25
2019-03-21T03:33:56.898Z,19.47
2019-03-21T03:36:25.031Z,18.53
2019-03-21T03:38:53.163Z,17.33
2019-03-21T03:41:21.739Z,18.37
2019-03-21T03:43:49.869Z,26.00
2019-03-21T03:46:18.051Z,18.97
2019-03-21T03:48:46.169Z,19.77
2019-03-21T03:51:14.293Z,23.37
2019-03-21T03:53:42.781Z,18.50
2019-03-21T03:56:11.178Z,18.50
2019-03-21T03:58:46.696Z,18.97
2019-03-21T04:01:14.875Z,20.87
2019-03-21T04:03:43.082Z,23.33
2019-03-21T04:06:11.317Z,19.57
2019-03-21T04:08:39.535Z,20.70
2019-03-21T04:11:07.697Z,21.05
2019-03-21T04:13:35.999Z,22.23
2019-03-21T04:16:04.322Z,20.32
2019-03-21T04:18:32.435Z,21.10
2019-03-21T04:21:02.113Z,20.13
2019-03-21T04:23:30.303Z,22.40
2019-03-21T04:26:02.981Z,22.67
2019-03-21T04:28:31.379Z,24.30
2019-03-21T04:30:59.530Z,20.43
2019-03-21T04:33:27.660Z,20.35
2019-03-21T04:35:55.780Z,25.17
2019-03-21T04:38:24.683Z,24.87
2019-03-21T04:40:52.887Z,24.03
2019-03-21T04:43:21.390Z,24.07
2019-03-21T04:45:49.602Z,25.17
2019-03-21T04:48:17.842Z,20.30
2019-03-21T04:50:46.081Z,23.70
2019-03-21T04:53:14.273Z,22.60
2019-03-21T04:55:42.954Z,25.53
2019-03-21T04:58:11.140Z,25.67
2019-03-21T05:00:49.766Z,21.17
2019-03-21T05:03:19.033Z,21.93
2019-03-21T05:05:47.338Z,22.77
2019-03-21T05:08:15.466Z,32.13
2019-03-21T05:10:43.595Z,28.03
2019-03-21T05:13:11.737Z,26.77
2019-03-21T05:15:41.403Z,27.83
2019-03-21T05:18:11.411Z,30.68
2019-03-21T05:20:39.906Z,23.30
2019-03-21T05:23:08.780Z,32.93
2019-03-21T05:25:36.899Z,23.30
2019-03-21T05:28:05.026Z,30.53
2019-03-21T05:30:37.652Z,25.43
2019-03-21T05:33:05.868Z,27.93
2019-03-21T05:35:33.994Z,24.47
2019-03-21T05:38:02.111Z,25.67
2019-03-21T05:40:30.258Z,21.80
2019-03-21T05:43:15.194Z,25.07
2019-03-21T05:45:43.317Z,29.87
2019-03-21T05:48:11.442Z,23.43
2019-03-21T05:50:39.579Z,24.13
2019-03-21T05:53:07.886Z,29.20
2019-03-21T05:55:36.093Z,28.30
2019-03-21T05:58:04.298Z,27.13
2019-03-21T06:00:35.851Z,27.57
2019-03-21T06:03:04.785Z,24.33
2019-03-21T06:05:32.965Z,22.57
2019-03-21T06:08:02.687Z,23.92
2019-03-21T06:10:30.807Z,28.20
2019-03-21T06:12:58.933Z,26.23
2019-03-21T06:15:28.752Z,32.20
2019-03-21T06:18:01.322Z,28.47
2019-03-21T06:20:42.923Z,24.60
2019-03-21T06:23:13.453Z,23.17
2019-03-21T06:25:50.081Z,28.00
2019-03-21T06:28:19.966Z,30.93
2019-03-21T06:30:48.155Z,24.47
2019-03-21T06:33:16.375Z,29.17
2019-03-21T06:35:44.537Z,25.20
2019-03-21T06:38:12.693Z,27.53
2019-03-21T06:40:40.815Z,32.67
2019-03-21T06:43:08.976Z,29.83
2019-03-21T06:45:47.576Z,25.27
2019-03-21T06:48:06.998Z,31.40
2019-03-21T06:50:35.183Z,34.13
2019-03-21T06:53:03.482Z,30.00
2019-03-21T06:55:31.681Z,29.20
2019-03-21T06:57:59.827Z,25.00
2019-03-21T07:00:28.696Z,32.63
2019-03-21T07:02:56.907Z,28.80
2019-03-21T07:05:26.774Z,28.70
2019-03-21T07:08:00.687Z,24.17
2019-03-21T07:10:28.898Z,26.00
2019-03-21T07:12:57.402Z,28.83
2019-03-21T07:15:28.980Z,25.37
2019-03-21T07:17:57.163Z,22.67
2019-03-21T07:20:25.366Z,25.20
2019-03-21T07:22:53.490Z,25.70
2019-03-21T07:25:21.654Z,23.23
2019-03-21T07:27:49.786Z,25.33
2019-03-21T07:30:17.977Z,31.13
2019-03-21T07:32:46.160Z,24.47
2019-03-21T07:35:14.366Z,24.90
2019-03-21T07:37:42.479Z,22.73
2019-03-21T07:40:14.201Z,25.40
2019-03-21T07:42:42.359Z,34.83
2019-03-21T07:45:11.476Z,25.67
2019-03-21T07:47:39.631Z,21.77
2019-03-21T07:50:09.374Z,25.27
2019-03-21T07:52:37.510Z,25.30
2019-03-21T07:55:09.578Z,27.30
2019-03-21T07:57:37.838Z,27.00
2019-03-21T08:00:07.486Z,21.00
2019-03-21T08:02:35.634Z,23.83
2019-03-21T08:05:04.520Z,24.20
2019-03-21T08:07:33.319Z,32.07
2019-03-21T08:10:01.426Z,20.30
2019-03-21T08:12:29.547Z,20.60
2019-03-21T08:14:57.682Z,24.33
2019-03-21T08:17:25.831Z,26.20
2019-03-21T08:19:53.949Z,23.20
2019-03-21T08:22:22.141Z,22.27
2019-03-21T08:24:50.256Z,23.30
2019-03-21T08:27:18.375Z,18.70
2019-03-21T08:29:46.512Z,25.00
2019-03-21T08:32:14.647Z,20.17
2019-03-21T08:34:42.763Z,26.93
2019-03-21T08:37:10.944Z,27.30
2019-03-21T08:39:39.103Z,17.27
2019-03-21T08:42:08.031Z,21.50
2019-03-21T08:44:36.202Z,23.53
2019-03-21T08:47:04.801Z,20.23
2019-03-21T08:49:32.924Z,19.63
2019-03-21T08:54:35.121Z,17.97
2019-03-21T08:57:03.350Z,22.17
2019-03-21T08:59:31.483Z,25.30
2019-03-21T09:01:59.653Z,25.50
2019-03-21T09:04:27.775Z,20.40
2019-03-21T09:06:56.002Z,20.93
2019-03-21T09:09:24.122Z,20.73
2019-03-21T09:11:52.362Z,22.73
2019-03-21T09:14:20.487Z,21.77
2019-03-21T09:16:48.799Z,21.93
2019-03-21T09:19:22.721Z,23.73
2019-03-21T09:21:50.887Z,23.30
2019-03-21T09:24:19.109Z,26.97
2019-03-21T09:26:47.297Z,28.27
2019-03-21T09:29:15.451Z,23.57
2019-03-21T09:31:43.588Z,21.83
2019-03-21T09:34:11.749Z,28.90
2019-03-21T09:36:39.934Z,23.57
2019-03-21T09:39:08.166Z,28.98
2019-03-21T09:41:36.366Z,24.23
2019-03-21T09:44:04.761Z,27.22
2019-03-21T09:46:32.895Z,22.20
2019-03-21T09:49:01.032Z,22.70
2019-03-21T09:51:31.161Z,22.62
2019-03-21T09:54:09.213Z,19.83
2019-03-21T09:56:28.862Z,19.30
2019-03-21T09:58:57.022Z,19.48
2019-03-21T10:01:25.159Z,18.62
2019-03-21T10:03:53.326Z,25.87
2019-03-21T10:06:21.518Z,26.23
2019-03-21T10:08:49.646Z,30.13
2019-03-21T10:11:17.790Z,22.13
2019-03-21T10:13:45.916Z,21.05
2019-03-21T10:16:14.078Z,25.97
2019-03-21T10:18:42.225Z,22.17
2019-03-21T10:21:10.406Z,36.47
2019-03-21T10:23:38.532Z,41.48
2019-03-21T10:26:06.643Z,30.83
2019-03-21T10:28:34.809Z,31.73
2019-03-21T10:31:03.036Z,39.70
2019-03-21T10:33:31.195Z,27.30
2019-03-21T10:35:59.310Z,29.82
2019-03-21T10:38:27.471Z,26.83
2019-03-21T10:40:56.348Z,24.98
2019-03-21T10:43:24.513Z,30.03
2019-03-21T10:45:52.646Z,21.23
2019-03-21T10:48:23.342Z,19.33
2019-03-21T10:50:50.639Z,21.03
2019-03-21T10:53:18.805Z,15.93
2019-03-21T10:55:46.926Z,20.37
2019-03-21T10:58:15.056Z,16.85
2019-03-21T11:00:43.231Z,16.77
2019-03-21T11:03:11.422Z,17.77
2019-03-21T11:05:39.536Z,24.00
2019-03-21T11:08:07.739Z,20.15
2019-03-21T11:10:36.999Z,19.37
2019-03-21T11:13:05.187Z,18.65
2019-03-21T11:15:33.483Z,22.17
2019-03-21T11:18:01.765Z,16.32
2019-03-21T11:20:39.465Z,18.40
2019-03-21T11:23:07.869Z,19.15
2019-03-21T11:25:36.063Z,15.10
2019-03-21T11:28:04.686Z,13.83
2019-03-21T11:30:33.992Z,13.68
2019-03-21T11:33:02.287Z,13.13
2019-03-21T11:35:30.982Z,14.03
2019-03-21T11:37:59.115Z,11.08
2019-03-21T11:40:27.245Z,10.08
2019-03-21T11:42:55.496Z,9.90
2019-03-21T11:45:23.642Z,10.68
2019-03-21T11:47:52.585Z,11.03
2019-03-21T11:50:20.799Z,13.35
2019-03-21T11:52:49.103Z,13.25
2019-03-21T11:55:17.325Z,12.03
2019-03-21T11:57:45.603Z,8.70
2019-03-21T12:00:14.462Z,10.80
2019-03-21T12:02:42.771Z,9.57
2019-03-21T12:05:10.951Z,10.68
2019-03-21T12:07:39.102Z,10.85
2019-03-21T12:10:09.475Z,10.03
2019-03-21T12:12:37.676Z,11.90
2019-03-21T12:15:10.155Z,11.60
2019-03-21T12:17:38.275Z,13.33
2019-03-21T12:20:07.938Z,12.10
2019-03-21T12:22:36.187Z,12.93
2019-03-21T12:25:05.923Z,11.10
2019-03-21T12:27:34.040Z,9.23
2019-03-21T12:30:02.218Z,10.25
2019-03-21T12:32:31.135Z,24.77
2019-03-21T12:34:59.311Z,11.30
2019-03-21T12:37:27.442Z,10.10
2019-03-21T12:39:55.599Z,9.07
2019-03-21T12:42:23.755Z,10.78
2019-03-21T12:44:51.868Z,10.08
2019-03-21T12:47:30.879Z,10.60
2019-03-21T12:49:50.426Z,9.90
2019-03-21T12:52:18.576Z,9.95
2019-03-21T12:54:46.726Z,10.60
2019-03-21T12:57:14.877Z,13.28
2019-03-21T12:59:43.166Z,9.95
2019-03-21T13:02:11.377Z,9.80
2019-03-21T13:04:39.599Z,10.15
2019-03-21T13:07:08.090Z,9.95
2019-03-21T13:09:36.200Z,9.60
2019-03-21T13:12:05.046Z,9.70
2019-03-21T13:14:33.250Z,11.45
2019-03-21T13:17:01.373Z,12.58
2019-03-21T13:19:29.510Z,12.73
2019-03-21T13:21:57.649Z,11.15
2019-03-21T13:24:25.845Z,11.23
2019-03-21T13:26:54.121Z,10.03
2019-03-21T13:29:24.983Z,12.03
2019-03-21T13:31:52.129Z,11.93
2019-03-21T13:34:20.243Z,13.20
2019-03-21T13:36:48.436Z,10.83
2019-03-21T13:39:19.281Z,16.25
2019-03-21T13:41:47.403Z,15.40
2019-03-21T13:44:15.577Z,9.95
2019-03-21T13:46:43.727Z,15.93
2019-03-21T13:49:11.905Z,11.97
2019-03-21T13:51:40.017Z,8.48
2019-03-21T13:54:08.917Z,11.18
2019-03-21T13:56:38.341Z,15.58
2019-03-21T13:59:06.685Z,13.60
2019-03-21T14:01:34.832Z,13.90
2019-03-21T14:04:02.952Z,8.13
2019-03-21T14:06:31.111Z,10.13
2019-03-21T14:08:59.301Z,10.03
2019-03-21T14:11:27.530Z,10.95
2019-03-21T14:13:55.655Z,8.68
2019-03-21T14:16:23.822Z,10.53
2019-03-21T14:18:52.052Z,13.32
2019-03-21T14:21:20.251Z,10.32
2019-03-21T14:23:48.410Z,10.45
2019-03-21T14:26:16.913Z,10.13
2019-03-21T14:28:45.117Z,12.53
2019-03-21T14:31:13.362Z,9.27
2019-03-21T14:33:41.517Z,9.98
2019-03-21T14:36:09.694Z,10.78
2019-03-21T14:38:37.853Z,7.60
2019-03-21T14:41:06.048Z,10.23
2019-03-21T14:43:34.254Z,8.05
2019-03-21T14:46:02.417Z,9.55
2019-03-21T14:48:30.580Z,8.58
2019-03-21T14:50:58.719Z,8.93
2019-03-21T14:53:29.018Z,9.25
2019-03-21T14:55:56.674Z,9.23
2019-03-21T14:58:24.805Z,8.03
2019-03-21T15:00:52.957Z,15.67
2019-03-21T15:03:21.110Z,10.35
2019-03-21T15:05:49.252Z,11.50
2019-03-21T15:08:17.369Z,12.90
2019-03-21T15:10:45.501Z,11.12
2019-03-21T15:13:13.620Z,10.53
2019-03-21T15:15:41.780Z,12.40
2019-03-21T15:18:10.836Z,11.43
2019-03-21T15:20:39.180Z,11.70
2019-03-21T15:23:07.329Z,19.15
2019-03-21T15:25:35.587Z,12.45
2019-03-21T15:28:03.969Z,11.28
2019-03-21T15:30:32.161Z,10.82
2019-03-21T15:33:00.379Z,10.73
2019-03-21T15:35:28.554Z,15.13
2019-03-21T15:37:56.655Z,10.60
2019-03-21T15:40:24.797Z,21.23
2019-03-21T15:42:52.930Z,12.70
2019-03-21T15:45:23.397Z,11.25
2019-03-21T15:47:50.913Z,10.43
2019-03-21T15:50:38.385Z,11.88
2019-03-21T15:53:06.867Z,10.57
2019-03-21T15:55:35.105Z,12.90
2019-03-21T15:58:03.336Z,13.65
2019-03-21T16:00:38.372Z,28.65
2019-03-21T16:03:07.176Z,17.60
2019-03-21T16:05:36.013Z,16.02
2019-03-21T16:08:04.409Z,17.02
2019-03-21T16:10:32.696Z,13.80
2019-03-21T16:13:00.883Z,19.97
2019-03-21T16:15:29.008Z,12.40
2019-03-21T16:17:58.997Z,12.85
2019-03-21T16:20:27.133Z,13.85
2019-03-21T16:22:55.428Z,20.23
2019-03-21T16:25:23.569Z,16.83
2019-03-21T16:27:51.695Z,21.52
2019-03-21T16:30:19.910Z,30.87
2019-03-21T16:32:48.043Z,17.40
2019-03-21T16:35:16.361Z,16.52
2019-03-21T16:37:44.482Z,21.33
2019-03-21T16:40:15.815Z,24.07
2019-03-21T16:42:44.018Z,44.93
2019-03-21T16:45:12.919Z,77.60
2019-03-21T16:47:41.079Z,19.07
2019-03-21T16:50:12.855Z,22.03
2019-03-21T16:52:40.976Z,17.37
2019-03-21T16:55:10.009Z,22.37
2019-03-21T16:57:38.170Z,21.77
2019-03-21T17:00:07.430Z,22.73
2019-03-21T17:02:35.659Z,20.30
2019-03-21T17:05:05.021Z,19.63
2019-03-21T17:07:33.272Z,19.63
2019-03-21T17:10:01.438Z,20.40
2019-03-21T17:12:29.656Z,18.30
2019-03-21T17:14:57.816Z,21.57
2019-03-21T17:17:25.943Z,21.30
2019-03-21T17:19:54.878Z,21.83
2019-03-21T17:22:23.048Z,21.50
2019-03-21T17:24:51.742Z,29.40
2019-03-21T17:27:19.880Z,21.33
2019-03-21T17:29:48.044Z,24.13
2019-03-21T17:32:17.423Z,23.18
2019-03-21T17:34:45.760Z,21.37
2019-03-21T17:37:13.942Z,23.90
2019-03-21T17:39:42.212Z,21.53
2019-03-21T17:42:10.341Z,26.90
2019-03-21T17:44:38.564Z,24.47
2019-03-21T17:47:09.759Z,26.83
2019-03-21T17:49:37.907Z,30.60
2019-03-21T17:52:06.099Z,22.37
2019-03-21T17:54:41.420Z,31.60
2019-03-21T17:57:04.254Z,23.80
2019-03-21T17:59:32.483Z,24.27
2019-03-21T18:02:00.614Z,33.73
2019-03-21T18:04:28.810Z,37.87
2019-03-21T18:06:56.944Z,21.20
2019-03-21T18:09:25.153Z,25.93
2019-03-21T18:11:54.516Z,34.07
2019-03-21T18:14:22.662Z,24.90
2019-03-21T18:16:50.895Z,30.67
2019-03-21T18:19:19.106Z,24.53
2019-03-21T18:21:47.237Z,24.70
2019-03-21T18:24:15.544Z,26.43
2019-03-21T18:26:44.551Z,22.70
2019-03-21T18:29:12.781Z,28.50
2019-03-21T18:31:40.942Z,32.70
2019-03-21T18:34:09.123Z,27.17
2019-03-21T18:36:37.378Z,29.47
2019-03-21T18:39:06.667Z,25.70
2019-03-21T18:41:34.862Z,33.43
2019-03-21T18:44:04.421Z,27.87
2019-03-21T18:46:32.598Z,35.80
2019-03-21T18:49:00.734Z,29.40
2019-03-21T18:51:28.976Z,43.90
2019-03-21T18:53:57.096Z,53.83
2019-03-21T18:56:25.288Z,48.63
2019-03-21T18:58:53.411Z,43.87
2019-03-21T19:01:22.303Z,34.90
2019-03-21T19:03:50.558Z,35.60
2019-03-21T19:06:19.963Z,41.07
2019-03-21T19:08:48.110Z,42.13
2019-03-21T19:11:16.278Z,38.60
2019-03-21T19:13:44.698Z,39.70
2019-03-21T19:16:12.828Z,34.90
2019-03-21T19:18:40.963Z,33.33
2019-03-21T19:21:09.111Z,45.57
2019-03-21T19:23:37.765Z,37.77
2019-03-21T19:26:05.950Z,36.30
2019-03-21T19:28:34.113Z,38.70
2019-03-21T19:31:02.306Z,35.05
2019-03-21T19:33:30.431Z,41.87
2019-03-21T19:35:58.643Z,36.07
2019-03-21T19:38:26.765Z,37.73
2019-03-21T19:40:54.938Z,39.50
2019-03-21T19:43:23.175Z,43.13
2019-03-21T19:45:51.381Z,30.77
2019-03-21T19:48:19.603Z,33.00
2019-03-21T19:50:47.798Z,38.77
2019-03-21T19:53:15.979Z,32.60
2019-03-21T19:55:44.187Z,37.60
2019-03-21T19:58:12.373Z,35.60
2019-03-21T20:00:40.498Z,36.60
2019-03-21T20:03:08.665Z,37.93
2019-03-21T20:05:36.866Z,36.47
2019-03-21T20:08:05.081Z,44.43
2019-03-21T20:10:33.439Z,43.13
2019-03-21T20:13:01.657Z,32.30
2019-03-21T20:15:29.798Z,43.30
2019-03-21T20:17:57.927Z,40.60
2019-03-21T20:20:26.253Z,40.63
2019-03-21T20:22:54.455Z,37.90
2019-03-21T20:25:22.610Z,37.90
2019-03-21T20:27:50.900Z,35.58
2019-03-21T20:30:19.797Z,39.93
2019-03-21T20:32:48.004Z,44.23
2019-03-21T20:35:22.094Z,36.77
2019-03-21T20:37:50.320Z,46.37
2019-03-21T20:40:18.972Z,34.17
2019-03-21T20:42:47.447Z,39.80
2019-03-21T20:45:16.775Z,44.10
2019-03-21T20:47:44.970Z,51.13
2019-03-21T20:50:13.206Z,41.15
2019-03-21T20:52:41.441Z,47.73
2019-03-21T20:55:09.845Z,44.47
2019-03-21T20:57:37.998Z,46.47
2019-03-21T21:00:07.682Z,41.07
2019-03-21T21:02:35.931Z,44.27
2019-03-21T21:05:05.038Z,42.03
2019-03-21T21:07:33.227Z,44.13
2019-03-21T21:10:01.388Z,45.17
2019-03-21T21:12:29.535Z,44.80
2019-03-21T21:14:57.748Z,43.53
2019-03-21T21:17:26.033Z,38.53
2019-03-21T21:19:54.217Z,44.57
2019-03-21T21:22:22.366Z,45.67
2019-03-21T21:24:50.590Z,43.67
2019-03-21T21:27:18.760Z,46.20
2019-03-21T21:29:46.959Z,49.83
2019-03-21T21:32:15.229Z,45.10
2019-03-21T21:34:43.387Z,52.93
2019-03-21T21:37:11.512Z,43.63
2019-03-21T21:39:39.723Z,49.13
2019-03-21T21:42:07.882Z,46.27
2019-03-21T21:44:36.014Z,46.27
2019-03-21T21:47:04.482Z,45.80
2019-03-21T21:49:32.604Z,48.47
2019-03-21T21:52:00.753Z,51.77
2019-03-21T21:54:28.942Z,54.77
2019-03-21T21:56:57.150Z,53.33
2019-03-21T21:59:25.331Z,52.83
2019-03-21T22:01:53.539Z,48.00
2019-03-21T22:04:21.690Z,55.10
2019-03-21T22:06:49.894Z,53.70
2019-03-21T22:09:18.010Z,57.30
2019-03-21T22:11:46.159Z,61.47
2019-03-21T22:14:14.351Z,61.13
2019-03-21T22:16:42.475Z,60.07
2019-03-21T22:19:10.671Z,60.00
2019-03-21T22:21:38.835Z,72.77
2019-03-21T22:24:06.982Z,60.93
2019-03-21T22:26:35.092Z,66.00
2019-03-21T22:29:03.305Z,68.47
2019-03-21T22:31:31.461Z,69.80
2019-03-21T22:33:59.582Z,70.47
2019-03-21T22:36:27.826Z,76.00
2019-03-21T22:38:55.955Z,72.37
2019-03-21T22:41:24.134Z,64.07
2019-03-21T22:43:52.307Z,79.50
2019-03-21T22:46:20.499Z,71.17
2019-03-21T22:48:48.803Z,67.30
2019-03-21T22:51:17.030Z,77.37
2019-03-21T22:53:45.337Z,65.63
2019-03-21T22:56:13.468Z,80.00
2019-03-21T22:58:41.828Z,72.63
2019-03-21T23:01:10.035Z,81.30
2019-03-21T23:03:38.262Z,83.13
2019-03-21T23:06:06.547Z,78.90
2019-03-21T23:08:34.769Z,83.77
2019-03-21T23:11:02.982Z,88.30
2019-03-21T23:13:31.163Z,79.60
2019-03-21T23:15:59.778Z,77.93
2019-03-21T23:18:27.893Z,77.77
2019-03-21T23:20:56.038Z,74.73
2019-03-21T23:23:24.179Z,77.30
2019-03-21T23:25:52.349Z,85.33
2019-03-21T23:28:20.462Z,78.80
2019-03-21T23:30:48.601Z,78.50
2019-03-21T23:33:16.717Z,89.87
2019-03-21T23:35:44.839Z,80.70
2019-03-21T23:38:13.066Z,77.53
2019-03-21T23:40:41.189Z,85.23
2019-03-21T23:43:09.310Z,81.23
2019-03-21T23:45:37.437Z,86.50
2019-03-21T23:48:05.700Z,88.20
2019-03-21T23:50:34.063Z,89.30
2019-03-21T23:53:02.290Z,80.50
2019-03-21T23:55:30.439Z,84.80
2019-03-21T23:57:58.699Z,91.70
